Time;durP1;ratioP1;P1;durP2;ratioP2;P2;SDS_P1;SDS_P2;PMS_P1;PMS_P2;Temp;Humidity;BMP_temperature;BMP_pressure;BME280_temperature;BME280_humidity;BME280_pressure;Samples;Min_cycle;Max_cycle;Signal;HPM_P1;HPM_P2
2022/11/03 00:01:02;;;;;;;1.30;1.00;;;22.10;97.90;;;;;;5034534;28;20463;-40
2022/11/03 00:03:29;;;;;;;3.67;1.33;;;22.10;97.90;;;;;;5042812;28;20449;-42
2022/11/03 00:06:05;;;;;;;2.67;1.27;;;22.10;98.00;;;;;;5032719;28;20454;-40
2022/11/03 00:08:34;;;;;;;2.30;1.60;;;22.10;98.00;;;;;;5030232;28;20794;-41
2022/11/03 00:11:05;;;;;;;1.50;1.03;;;22.10;98.10;;;;;;5033695;28;21143;-41
2022/11/03 00:13:32;;;;;;;1.40;1.07;;;22.10;98.10;;;;;;5040551;28;20976;-40
2022/11/03 00:15:59;;;;;;;2.47;1.50;;;22.00;98.10;;;;;;5037136;28;20988;-39
2022/11/03 00:18:26;;;;;;;1.43;1.20;;;22.00;98.20;;;;;;5031853;28;20488;-39
2022/11/03 00:20:59;;;;;;;1.30;1.20;;;22.00;98.10;;;;;;5030777;28;20799;-40
2022/11/03 00:23:28;;;;;;;1.87;1.17;;;22.00;98.20;;;;;;5038370;28;20457;-38
2022/11/03 00:26:02;;;;;;;1.70;1.60;;;22.00;98.30;;;;;;5034215;28;20470;-39
2022/11/03 00:28:31;;;;;;;3.60;1.80;;;22.00;98.40;;;;;;5030062;28;20457;-38
2022/11/03 00:30:58;;;;;;;1.40;1.00;;;22.00;98.40;;;;;;5037415;28;20484;-40
2022/11/03 00:33:26;;;;;;;1.73;1.30;;;21.90;98.40;;;;;;5031611;28;20457;-40
2022/11/03 00:35:56;;;;;;;2.30;1.50;;;21.90;98.50;;;;;;5031726;28;20485;-39
2022/11/03 00:38:23;;;;;;;2.73;1.47;;;21.90;98.60;;;;;;5031094;28;20474;-38
2022/11/03 00:40:53;;;;;;;1.67;1.20;;;21.90;98.60;;;;;;5034183;28;20465;-41
2022/11/03 00:43:22;;;;;;;1.40;1.20;;;21.90;98.60;;;;;;5029686;28;20451;-38
2022/11/03 00:45:49;;;;;;;1.97;1.17;;;21.90;98.70;;;;;;5036461;28;20463;-40
2022/11/03 00:48:32;;;;;;;1.47;1.20;;;21.80;98.70;;;;;;5036367;28;20981;-40
2022/11/03 00:51:04;;;;;;;1.20;1.03;;;21.80;98.80;;;;;;5040217;28;20589;-38
2022/11/03 00:53:32;;;;;;;2.03;1.30;;;21.80;98.90;;;;;;5039382;28;20468;-39
2022/11/03 00:55:59;;;;;;;2.03;1.43;;;21.80;98.90;;;;;;5033721;28;20470;-38
2022/11/03 00:58:28;;;;;;;1.57;1.40;;;21.70;99.00;;;;;;5039816;28;20445;-41
2022/11/03 01:01:02;;;;;;;2.10;1.77;;;21.70;99.00;;;;;;5041985;28;20454;-37
2022/11/03 01:03:31;;;;;;;1.53;1.10;;;21.70;99.00;;;;;;5036118;28;20469;-38
2022/11/03 01:08:42;;;;;;;1.83;0.90;;;21.70;99.10;;;;;;5028381;28;20445;-41
2022/11/03 01:13:59;;;;;;;3.03;1.10;;;21.70;99.30;;;;;;5029994;28;20442;-39
2022/11/03 01:16:27;;;;;;;2.00;1.10;;;21.70;99.30;;;;;;5029765;28;20859;-39
2022/11/03 01:18:54;;;;;;;2.10;1.50;;;21.70;99.70;;;;;;5034115;28;20449;-39
2022/11/03 01:21:21;;;;;;;1.10;0.97;;;21.70;99.30;;;;;;5035003;28;20466;-39
2022/11/03 01:23:48;;;;;;;1.27;1.10;;;21.70;99.40;;;;;;5045804;28;21449;-37
2022/11/03 01:26:15;;;;;;;1.83;1.23;;;21.60;99.40;;;;;;5034799;28;20450;-40
2022/11/03 01:28:44;;;;;;;2.50;1.10;;;21.60;99.50;;;;;;5045143;28;20822;-40
2022/11/03 01:31:14;;;;;;;1.70;1.20;;;21.60;99.50;;;;;;5040128;28;20718;-38
2022/11/03 01:33:41;;;;;;;1.87;1.30;;;21.60;99.60;;;;;;5035424;28;20453;-41
2022/11/03 01:36:08;;;;;;;1.88;1.52;;;21.60;99.60;;;;;;5046801;28;20470;-39
2022/11/03 01:38:36;;;;;;;2.03;1.00;;;21.50;99.60;;;;;;5035606;28;20202;-39
2022/11/03 01:41:06;;;;;;;1.42;0.95;;;21.50;99.70;;;;;;5035975;28;20477;-40
2022/11/03 01:43:33;;;;;;;1.90;1.17;;;21.50;99.70;;;;;;5039855;28;20206;-40
2022/11/03 01:46:04;;;;;;;3.03;1.30;;;21.50;99.80;;;;;;5042317;28;20465;-39
2022/11/03 01:48:34;;;;;;;2.22;1.13;;;21.50;99.80;;;;;;5043497;28;20469;-38
2022/11/03 01:51:02;;;;;;;1.65;1.00;;;21.50;99.90;;;;;;5041288;28;20202;-39
2022/11/03 01:53:30;;;;;;;1.73;1.10;;;21.50;99.90;;;;;;5034175;28;20214;-38
2022/11/03 01:55:58;;;;;;;1.90;1.23;;;21.40;99.90;;;;;;5032234;28;20481;-40
2022/11/03 01:58:29;;;;;;;1.70;1.30;;;21.40;99.90;;;;;;5039678;28;20210;-38
2022/11/03 02:00:59;;;;;;;1.65;1.00;;;21.40;99.90;;;;;;5039362;28;20466;-39
2022/11/03 02:03:28;;;;;;;1.70;1.60;;;21.40;99.90;;;;;;5031249;28;20203;-41
2022/11/03 02:05:56;;;;;;;1.63;1.20;;;21.40;99.90;;;;;;5034520;28;20466;-39
2022/11/03 02:08:29;;;;;;;1.73;1.20;;;21.30;99.90;;;;;;5037031;28;20209;-38
2022/11/03 02:10:57;;;;;;;1.60;1.17;;;21.30;99.90;;;;;;5043919;28;20199;-41
2022/11/03 02:13:26;;;;;;;1.27;0.93;;;21.30;99.90;;;;;;5043858;28;20195;-39
2022/11/03 02:15:55;;;;;;;1.52;1.00;;;21.30;99.90;;;;;;5032215;28;20206;-39
2022/11/03 02:18:26;;;;;;;1.25;0.90;;;21.30;99.90;;;;;;5036101;28;20211;-41
2022/11/03 02:21:05;;;;;;;1.95;1.35;;;21.30;99.90;;;;;;5033285;28;20191;-39
2022/11/03 02:23:40;;;;;;;1.33;1.00;;;21.20;99.90;;;;;;5037680;28;20194;-39
2022/11/03 02:26:11;;;;;;;1.63;1.10;;;21.20;99.90;;;;;;5042919;28;20195;-38
2022/11/03 02:28:38;;;;;;;1.93;1.17;;;21.20;99.90;;;;;;5033075;28;20203;-39
2022/11/03 02:31:14;;;;;;;1.35;1.20;;;21.20;99.90;;;;;;5036160;28;20454;-40
2022/11/03 02:33:53;;;;;;;1.20;1.00;;;21.20;99.90;;;;;;5033468;28;20534;-38
2022/11/03 02:36:24;;;;;;;1.30;0.90;;;21.20;99.90;;;;;;5031682;28;20219;-39
2022/11/03 02:38:57;;;;;;;1.85;1.02;;;21.10;99.90;;;;;;5038269;28;20199;-41
2022/11/03 02:41:27;;;;;;;1.10;0.85;;;21.10;99.90;;;;;;5032871;28;20218;-38
2022/11/03 02:43:55;;;;;;;1.67;0.98;;;21.10;99.90;;;;;;5035831;28;20188;-40
2022/11/03 02:46:25;;;;;;;1.52;0.95;;;21.10;99.90;;;;;;5035822;28;20219;-39
2022/11/03 02:48:52;;;;;;;1.23;1.00;;;21.10;99.90;;;;;;5043480;28;20191;-40
2022/11/03 02:51:19;;;;;;;1.23;1.00;;;21.10;99.90;;;;;;5032489;28;20200;-38
2022/11/03 02:54:00;;;;;;;1.40;1.15;;;21.00;99.90;;;;;;5037760;28;20427;-38
2022/11/03 02:56:31;;;;;;;1.92;1.23;;;21.00;99.90;;;;;;5033313;28;20212;-42
2022/11/03 02:59:01;;;;;;;1.67;1.58;;;21.00;99.90;;;;;;5036044;28;20204;-39
2022/11/03 03:01:33;;;;;;;1.40;1.13;;;21.00;99.90;;;;;;5040433;28;20222;-39
2022/11/03 03:04:03;;;;;;;1.20;1.10;;;21.00;99.90;;;;;;5039299;28;21030;-40
2022/11/03 03:06:36;;;;;;;1.42;1.20;;;21.00;99.90;;;;;;5038208;28;20207;-38
2022/11/03 03:09:07;;;;;;;1.85;1.10;;;20.90;99.90;;;;;;5031912;28;20203;-40
2022/11/03 03:11:37;;;;;;;2.58;1.50;;;20.90;99.90;;;;;;5032718;28;20199;-36
2022/11/03 03:14:08;;;;;;;1.33;1.00;;;20.90;99.90;;;;;;5040457;28;20195;-39
2022/11/03 03:16:43;;;;;;;2.15;1.25;;;20.90;99.90;;;;;;5040226;28;20220;-37
2022/11/03 03:19:22;;;;;;;1.58;1.20;;;20.80;99.90;;;;;;5043971;28;20202;-41
2022/11/03 03:21:53;;;;;;;1.10;0.90;;;20.80;99.90;;;;;;5030469;28;20640;-40
2022/11/03 03:24:27;;;;;;;1.30;1.10;;;20.80;99.90;;;;;;5036351;28;20210;-39
2022/11/03 03:26:58;;;;;;;1.65;1.17;;;20.80;99.90;;;;;;5036330;28;20195;-38
2022/11/03 03:29:28;;;;;;;1.30;0.90;;;20.80;99.90;;;;;;5040774;28;20199;-41
2022/11/03 03:31:58;;;;;;;2.10;1.63;;;20.70;99.90;;;;;;5031111;28;20198;-40
2022/11/03 03:34:27;;;;;;;1.30;1.00;;;20.70;99.90;;;;;;5035411;28;20203;-39
2022/11/03 03:36:57;;;;;;;1.60;0.95;;;20.70;99.90;;;;;;5031207;28;20218;-38
2022/11/03 03:39:27;;;;;;;1.60;1.10;;;20.70;99.90;;;;;;5036702;28;20222;-38
2022/11/03 03:41:57;;;;;;;1.45;1.00;;;20.70;99.90;;;;;;5033149;28;20188;-39
2022/11/03 03:44:25;;;;;;;1.67;1.02;;;20.70;99.90;;;;;;5035192;28;20195;-38
2022/11/03 03:46:56;;;;;;;1.35;0.90;;;20.60;99.90;;;;;;5030878;28;20196;-40
2022/11/03 03:49:23;;;;;;;1.40;1.00;;;20.70;99.90;;;;;;5040936;28;20198;-38
2022/11/03 03:51:51;;;;;;;1.00;0.80;;;20.60;99.90;;;;;;5039578;28;20191;-42
2022/11/03 03:54:18;;;;;;;1.60;1.30;;;20.60;99.90;;;;;;5035142;28;20200;-40
2022/11/03 03:56:51;;;;;;;1.48;0.85;;;20.60;99.90;;;;;;5035961;28;20218;-39
2022/11/03 03:59:19;;;;;;;1.40;1.08;;;20.60;99.90;;;;;;5034807;28;20223;-38
2022/11/03 04:01:46;;;;;;;1.40;1.00;;;20.50;99.90;;;;;;5031912;28;20201;-39
2022/11/03 04:04:13;;;;;;;1.23;1.13;;;20.50;99.90;;;;;;5032924;28;20192;-37
2022/11/03 04:06:40;;;;;;;1.70;1.10;;;20.50;99.90;;;;;;5031603;28;20203;-39
2022/11/03 04:09:07;;;;;;;1.30;1.00;;;20.50;99.90;;;;;;5039670;28;20204;-37
2022/11/03 04:22:33;;;;;;;3.05;1.33;;;20.40;99.90;;;;;;5031300;28;20631;-39
2022/11/03 04:25:00;;;;;;;1.20;0.90;;;20.40;99.90;;;;;;5030306;28;20188;-39
2022/11/03 04:27:32;;;;;;;1.15;1.00;;;20.40;99.90;;;;;;5030756;28;20210;-41
2022/11/03 04:30:10;;;;;;;1.83;1.35;;;20.40;99.90;;;;;;5038698;28;20203;-37
2022/11/03 04:32:37;;;;;;;1.60;1.25;;;20.30;99.90;;;;;;5030553;28;20559;-39
2022/11/03 04:35:15;;;;;;;1.10;0.80;;;20.30;99.90;;;;;;5039641;28;20192;-38
2022/11/03 04:37:41;;;;;;;2.05;1.02;;;20.30;99.90;;;;;;5039773;28;20268;-39
2022/11/03 04:40:15;;;;;;;1.85;1.15;;;20.40;99.90;;;;;;5034870;28;20208;-39
2022/11/03 04:42:42;;;;;;;1.25;1.10;;;20.80;99.90;;;;;;5033594;28;20199;-36
2022/11/03 04:45:20;;;;;;;1.42;0.95;;;21.10;99.90;;;;;;5034437;28;20543;-38
2022/11/03 04:47:47;;;;;;;1.60;0.93;;;21.10;99.90;;;;;;5029864;28;20214;-39
2022/11/03 04:50:18;;;;;;;1.10;0.90;;;21.40;99.90;;;;;;5035210;28;20462;-37
2022/11/03 04:52:45;;;;;;;1.40;0.90;;;21.60;99.90;;;;;;5031758;28;20638;-38
2022/11/03 04:55:15;;;;;;;1.37;1.27;;;21.70;99.90;;;;;;5031018;28;20458;-39
2022/11/03 04:57:42;;;;;;;1.30;1.10;;;21.70;99.90;;;;;;5034856;28;20569;-38
2022/11/03 05:00:16;;;;;;;1.50;1.27;;;21.80;99.90;;;;;;5043384;28;20454;-41
2022/11/03 05:02:44;;;;;;;3.03;1.10;;;21.80;99.90;;;;;;5038339;28;20480;-38
2022/11/03 05:05:20;;;;;;;1.10;0.87;;;22.00;99.90;;;;;;5036308;28;20454;-38
2022/11/03 05:07:48;;;;;;;1.07;0.77;;;22.00;99.90;;;;;;5036823;28;20449;-41
2022/11/03 05:10:18;;;;;;;1.30;0.90;;;22.00;99.90;;;;;;5037331;28;20458;-38
2022/11/03 05:12:46;;;;;;;1.30;0.87;;;22.00;99.90;;;;;;5033896;28;20491;-42
2022/11/03 05:15:30;;;;;;;1.37;1.10;;;22.00;99.90;;;;;;5037407;28;20466;-42
2022/11/03 05:17:57;;;;;;;1.00;0.80;;;22.00;99.90;;;;;;5036777;28;20488;-39
2022/11/03 05:20:31;;;;;;;1.07;0.80;;;21.90;99.90;;;;;;5038015;28;20465;-40
2022/11/03 05:22:57;;;;;;;1.40;1.20;;;21.90;99.90;;;;;;5036279;28;20458;-39
2022/11/03 05:25:38;;;;;;;1.40;1.00;;;21.90;99.90;;;;;;5035965;28;20814;-41
2022/11/03 05:28:14;;;;;;;1.50;1.20;;;21.80;99.90;;;;;;5035755;28;20973;-38
2022/11/03 05:30:42;;;;;;;1.03;0.80;;;21.80;99.90;;;;;;5036663;28;20488;-40
2022/11/03 05:33:19;;;;;;;1.27;0.90;;;21.80;99.90;;;;;;5032869;28;20454;-39
2022/11/03 05:35:45;;;;;;;1.40;1.10;;;21.80;99.90;;;;;;5039925;28;20509;-39
2022/11/03 05:38:14;;;;;;;1.70;1.00;;;21.70;99.90;;;;;;5038385;28;20801;-38
2022/11/03 05:40:41;;;;;;;1.20;0.90;;;21.70;99.90;;;;;;5040912;28;20469;-38
2022/11/03 05:43:13;;;;;;;1.20;0.90;;;21.70;99.90;;;;;;5039851;28;20982;-37
2022/11/03 05:45:39;;;;;;;1.93;0.90;;;21.70;99.90;;;;;;5040077;28;20449;-38
2022/11/03 05:48:13;;;;;;;1.00;0.80;;;21.60;99.90;;;;;;5038860;28;20463;-42
2022/11/03 05:50:41;;;;;;;1.17;0.80;;;21.60;99.90;;;;;;5031601;28;20454;-41
2022/11/03 05:53:25;;;;;;;1.33;1.03;;;21.60;99.90;;;;;;5040646;28;20458;-41
2022/11/03 05:55:52;;;;;;;1.90;0.80;;;21.60;99.90;;;;;;5039571;28;20462;-38
2022/11/03 05:58:23;;;;;;;1.50;1.10;;;21.60;99.90;;;;;;5039279;28;20488;-38
2022/11/03 06:00:51;;;;;;;1.10;0.90;;;21.50;99.90;;;;;;5033611;28;20486;-39
2022/11/03 06:03:23;;;;;;;1.77;0.90;;;21.50;99.90;;;;;;5032765;28;20458;-38
2022/11/03 06:05:51;;;;;;;1.30;0.90;;;21.50;99.90;;;;;;5033622;28;20646;-37
2022/11/03 06:08:20;;;;;;;1.40;1.13;;;21.50;99.90;;;;;;5037970;28;20984;-40
2022/11/03 06:10:50;;;;;;;1.10;0.90;;;21.60;99.90;;;;;;5037941;28;20469;-38
2022/11/03 06:13:20;;;;;;;1.00;0.80;;;21.60;99.90;;;;;;5032763;28;20964;-37
2022/11/03 06:15:50;;;;;;;1.40;1.00;;;21.60;99.90;;;;;;5034374;28;20461;-39
2022/11/03 06:18:23;;;;;;;1.10;0.80;;;21.60;99.90;;;;;;5030466;28;20475;-40
2022/11/03 06:20:52;;;;;;;1.70;1.00;;;21.60;99.90;;;;;;5033736;28;20858;-40
2022/11/03 06:23:20;;;;;;;1.13;0.93;;;21.60;99.90;;;;;;5038596;28;20472;-39
2022/11/03 06:25:48;;;;;;;1.20;0.83;;;21.60;99.90;;;;;;5035277;28;20450;-40
2022/11/03 06:28:20;;;;;;;1.73;1.27;;;21.50;99.90;;;;;;5034939;28;20961;-41
2022/11/03 06:30:47;;;;;;;1.23;1.03;;;21.50;99.90;;;;;;5033139;28;20462;-38
2022/11/03 06:33:18;;;;;;;1.37;0.97;;;21.50;99.90;;;;;;5034711;28;20474;-39
2022/11/03 06:35:46;;;;;;;1.07;0.80;;;21.50;99.90;;;;;;5034595;28;20449;-40
2022/11/03 06:38:17;;;;;;;1.60;0.98;;;21.50;99.90;;;;;;5046459;28;20488;-38
2022/11/03 06:40:45;;;;;;;1.07;0.80;;;21.60;99.90;;;;;;5040666;28;20203;-41
2022/11/03 06:43:20;;;;;;;1.53;1.43;;;21.60;99.90;;;;;;5034586;28;20459;-38
2022/11/03 06:45:53;;;;;;;1.10;0.90;;;21.60;99.90;;;;;;5033222;28;20886;-40
2022/11/03 06:48:27;;;;;;;1.57;1.20;;;21.70;99.90;;;;;;5038864;28;20465;-40
2022/11/03 06:50:57;;;;;;;1.38;1.00;;;21.70;99.90;;;;;;5033684;28;20457;-38
2022/11/03 06:53:27;;;;;;;0.87;0.67;;;21.80;99.90;;;;;;5040250;28;20678;-38
2022/11/03 06:55:55;;;;;;;1.60;1.03;;;21.80;99.90;;;;;;5034305;28;20454;-41
2022/11/03 06:58:26;;;;;;;1.07;0.80;;;21.90;99.90;;;;;;5035697;28;21019;-38
2022/11/03 07:00:56;;;;;;;1.50;0.90;;;22.00;99.90;;;;;;5035375;28;21023;-39
2022/11/03 07:03:26;;;;;;;1.83;1.10;;;22.10;99.90;;;;;;5031109;28;20467;-34
2022/11/03 07:05:58;;;;;;;1.10;0.70;;;22.20;99.90;;;;;;5037720;28;20450;-36
2022/11/03 07:08:28;;;;;;;1.30;0.80;;;22.20;99.60;;;;;;5042835;28;20944;-34
2022/11/03 07:11:02;;;;;;;1.30;0.90;;;22.20;99.50;;;;;;5034285;28;20466;-34
2022/11/03 07:13:32;;;;;;;1.40;0.80;;;22.30;99.40;;;;;;5038424;28;20457;-35
2022/11/03 07:15:59;;;;;;;1.30;0.90;;;22.30;99.40;;;;;;5037821;28;20520;-35
2022/11/03 07:18:28;;;;;;;1.20;0.80;;;22.30;99.30;;;;;;5032367;28;20482;-39
2022/11/03 07:20:57;;;;;;;1.00;0.80;;;22.30;99.20;;;;;;5034072;28;20829;-34
2022/11/03 07:23:26;;;;;;;1.20;0.93;;;22.30;99.20;;;;;;5040431;28;20465;-34
2022/11/03 07:25:56;;;;;;;1.33;0.77;;;22.30;99.20;;;;;;5038278;28;20466;-34
2022/11/03 07:28:26;;;;;;;1.53;0.90;;;22.30;99.20;;;;;;5030162;28;20462;-34
2022/11/03 07:30:53;;;;;;;1.00;0.77;;;22.20;99.10;;;;;;5034781;28;20459;-35
2022/11/03 07:33:22;;;;;;;1.10;0.83;;;22.20;99.20;;;;;;5030587;28;20463;-35
2022/11/03 07:35:49;;;;;;;1.30;0.93;;;22.20;99.10;;;;;;5037539;28;20454;-34
2022/11/03 07:38:19;;;;;;;1.10;0.97;;;22.20;99.20;;;;;;5034408;28;20497;-39
2022/11/03 07:40:46;;;;;;;1.80;1.00;;;22.20;99.20;;;;;;5036122;28;20472;-34
2022/11/03 07:43:16;;;;;;;1.20;1.00;;;22.10;99.20;;;;;;5030531;28;20458;-35
2022/11/03 07:45:44;;;;;;;0.90;0.80;;;22.10;99.20;;;;;;5035308;28;21027;-35
2022/11/03 07:48:26;;;;;;;1.40;1.10;;;22.10;99.20;;;;;;5037552;28;20481;-36
2022/11/03 07:50:55;;;;;;;1.40;0.90;;;22.10;99.30;;;;;;5031857;28;20520;-34
2022/11/03 07:53:28;;;;;;;1.50;0.90;;;22.00;99.30;;;;;;5031194;28;20462;-37
2022/11/03 07:55:56;;;;;;;1.40;1.00;;;22.00;99.30;;;;;;5037806;28;20469;-34
2022/11/03 07:58:34;;;;;;;1.10;0.70;;;22.00;99.40;;;;;;5042308;28;20486;-34
2022/11/03 08:01:03;;;;;;;1.67;0.87;;;22.00;99.40;;;;;;5029168;28;20813;-36
2022/11/03 08:03:42;;;;;;;2.10;1.20;;;22.00;99.30;;;;;;5037262;28;20468;-38
2022/11/03 08:06:08;;;;;;;2.97;1.17;;;22.00;98.10;;;;;;5031641;28;20438;-36
2022/11/03 08:08:37;;;;;;;3.37;0.97;;;22.10;98.10;;;;;;5033050;28;20459;-36
2022/11/03 08:11:04;;;;;;;3.80;1.57;;;22.10;98.00;;;;;;5038899;28;20458;-35
2022/11/03 08:13:30;;;;;;;2.03;1.73;;;22.10;97.70;;;;;;5034411;28;20544;-36
2022/11/03 08:15:57;;;;;;;6.77;1.77;;;22.10;97.70;;;;;;5035750;28;20500;-36
2022/11/03 08:18:24;;;;;;;2.33;1.23;;;22.10;97.70;;;;;;5035147;28;20478;-38
2022/11/03 08:20:51;;;;;;;2.80;1.43;;;22.10;97.70;;;;;;5043072;28;20460;-34
2022/11/03 08:23:18;;;;;;;3.33;1.50;;;22.10;97.60;;;;;;5033221;28;20477;-38
2022/11/03 08:25:47;;;;;;;2.10;1.23;;;22.20;97.60;;;;;;5037988;28;20461;-35
2022/11/03 08:28:13;;;;;;;3.03;1.20;;;22.20;97.50;;;;;;5035820;28;20858;-35
2022/11/03 08:30:40;;;;;;;1.80;1.47;;;22.20;97.40;;;;;;5041527;28;20466;-35
2022/11/03 08:33:07;;;;;;;2.73;1.30;;;22.20;97.40;;;;;;5038336;28;20458;-38
2022/11/03 08:35:33;;;;;;;2.60;1.33;;;22.20;97.20;;;;;;5039895;28;20442;-36
2022/11/03 08:38:00;;;;;;;3.57;1.30;;;22.30;97.10;;;;;;5038609;28;20486;-35
2022/11/03 08:40:27;;;;;;;1.70;1.10;;;22.30;97.00;;;;;;5039332;28;20778;-36
2022/11/03 08:42:55;;;;;;;2.13;1.27;;;22.30;96.90;;;;;;5045443;28;20458;-37
2022/11/03 08:45:21;;;;;;;2.10;1.30;;;22.30;96.90;;;;;;5038325;28;20473;-36
2022/11/03 08:47:48;;;;;;;3.60;1.20;;;22.40;96.80;;;;;;5038254;28;20442;-35
2022/11/03 08:50:15;;;;;;;2.77;1.30;;;22.40;96.80;;;;;;5033043;28;20453;-39
2022/11/03 08:52:41;;;;;;;2.40;1.30;;;22.40;96.80;;;;;;5029683;28;20809;-39
2022/11/03 08:55:09;;;;;;;1.47;1.00;;;22.40;96.70;;;;;;5033613;28;20803;-34
2022/11/03 08:57:35;;;;;;;4.83;1.50;;;22.40;96.50;;;;;;5031907;28;20496;-35
2022/11/03 09:00:05;;;;;;;1.73;1.17;;;22.40;96.40;;;;;;5037854;28;20449;-35
2022/11/03 09:02:31;;;;;;;2.03;1.30;;;22.40;96.40;;;;;;5041728;28;20457;-36
2022/11/03 09:04:58;;;;;;;3.90;1.77;;;22.40;96.60;;;;;;5033444;28;20995;-33
2022/11/03 09:07:25;;;;;;;1.50;1.20;;;22.50;97.30;;;;;;5035483;28;20872;-34
2022/11/03 09:09:52;;;;;;;2.33;1.53;;;22.50;97.00;;;;;;5033629;28;20474;-33
2022/11/03 09:12:18;;;;;;;1.97;1.00;;;22.50;96.90;;;;;;5036103;28;20446;-33
2022/11/03 09:14:45;;;;;;;3.70;1.20;;;22.50;96.60;;;;;;5035517;28;20465;-33
2022/11/03 09:17:13;;;;;;;1.63;1.00;;;22.60;96.50;;;;;;5031987;28;20474;-40
2022/11/03 09:19:40;;;;;;;3.00;1.20;;;22.60;96.80;;;;;;5029697;28;20478;-35
2022/11/03 09:22:06;;;;;;;2.73;1.10;;;22.60;96.70;;;;;;5031737;28;20889;-33
2022/11/03 09:24:33;;;;;;;2.70;1.33;;;22.60;96.60;;;;;;5038283;28;20466;-36
2022/11/03 09:27:00;;;;;;;1.60;1.10;;;22.60;96.40;;;;;;5031815;28;20454;-35
2022/11/03 09:29:26;;;;;;;1.97;1.10;;;22.60;96.20;;;;;;5031537;28;20458;-33
2022/11/03 09:31:53;;;;;;;3.10;1.30;;;22.60;96.10;;;;;;5038178;28;20462;-34
2022/11/03 09:34:21;;;;;;;1.63;1.10;;;22.60;96.10;;;;;;5027340;28;20469;-36
2022/11/03 09:36:48;;;;;;;1.60;1.40;;;22.60;96.00;;;;;;5041144;28;20457;-34
2022/11/03 09:39:15;;;;;;;3.40;1.10;;;22.70;96.00;;;;;;5036738;28;20477;-34
2022/11/03 09:41:41;;;;;;;1.43;1.13;;;22.70;95.90;;;;;;5031353;28;20463;-33
2022/11/03 09:44:09;;;;;;;1.80;1.40;;;22.70;95.80;;;;;;5037648;28;20474;-36
2022/11/03 09:46:36;;;;;;;1.30;0.93;;;22.80;95.80;;;;;;5042092;28;20541;-33
2022/11/03 09:49:04;;;;;;;1.90;1.30;;;22.70;95.70;;;;;;5037208;28;20553;-34
2022/11/03 09:51:34;;;;;;;2.10;1.03;;;22.80;95.70;;;;;;5035257;28;20458;-34
2022/11/03 09:54:04;;;;;;;2.77;1.43;;;22.80;95.60;;;;;;5037366;28;20466;-33
2022/11/03 09:56:31;;;;;;;4.07;1.50;;;22.80;95.50;;;;;;5034735;28;20465;-34
2022/11/03 09:58:59;;;;;;;1.63;1.13;;;22.80;95.50;;;;;;5037260;28;20823;-34
2022/11/03 10:01:26;;;;;;;1.47;0.97;;;22.80;95.40;;;;;;5040106;28;20494;-36
2022/11/03 10:04:01;;;;;;;2.23;1.67;;;22.80;95.40;;;;;;5035510;28;20462;-33
2022/11/03 10:06:29;;;;;;;4.30;1.40;;;22.80;95.30;;;;;;5042768;28;20635;-36
2022/11/03 10:08:57;;;;;;;3.63;1.20;;;22.80;95.50;;;;;;5036278;28;20480;-33
2022/11/03 10:11:24;;;;;;;3.80;1.60;;;22.70;95.20;;;;;;5042140;28;20461;-34
2022/11/03 10:13:54;;;;;;;8.53;1.40;;;22.70;95.70;;;;;;5041076;28;20434;-37
2022/11/03 10:16:24;;;;;;;1.80;1.20;;;22.70;96.00;;;;;;5038527;28;20531;-43
2022/11/03 10:18:51;;;;;;;2.60;1.00;;;22.60;96.20;;;;;;5032917;28;20834;-37
2022/11/03 10:21:20;;;;;;;1.33;1.07;;;22.60;96.50;;;;;;5037794;28;21755;-39
2022/11/03 10:23:49;;;;;;;2.47;1.30;;;22.60;96.70;;;;;;5040197;28;20958;-42
2022/11/03 10:26:19;;;;;;;3.63;1.20;;;22.60;97.00;;;;;;5039532;28;20803;-42
2022/11/03 10:28:59;;;;;;;2.73;1.23;;;22.70;97.30;;;;;;5038676;28;20457;-42
2022/11/03 10:31:33;;;;;;;2.27;1.10;;;22.60;97.40;;;;;;5034335;28;20489;-41
2022/11/03 10:34:00;;;;;;;1.70;1.17;;;22.70;97.50;;;;;;5035020;28;20485;-39
2022/11/03 10:36:28;;;;;;;2.53;1.33;;;22.70;97.70;;;;;;5035798;28;20851;-40
2022/11/03 10:38:55;;;;;;;2.17;1.37;;;22.70;97.80;;;;;;5044133;28;20488;-40
2022/11/03 10:41:25;;;;;;;2.23;1.33;;;22.70;97.90;;;;;;5035563;28;20478;-38
2022/11/03 10:44:04;;;;;;;2.57;1.33;;;22.70;98.10;;;;;;5036938;28;20466;-35
2022/11/03 10:46:32;;;;;;;1.80;1.10;;;22.70;98.10;;;;;;5036624;28;20462;-38
2022/11/03 10:49:04;;;;;;;1.60;1.00;;;22.70;98.30;;;;;;5042156;28;20625;-37
2022/11/03 10:51:33;;;;;;;1.97;1.20;;;22.70;98.30;;;;;;5042768;28;20469;-37
2022/11/03 10:54:01;;;;;;;2.77;1.40;;;22.70;98.30;;;;;;5045269;28;20463;-40
2022/11/03 10:56:29;;;;;;;2.20;1.00;;;22.70;98.40;;;;;;5038780;28;20831;-40
2022/11/03 10:58:58;;;;;;;2.13;1.17;;;22.70;98.40;;;;;;5037462;28;20478;-39
2022/11/03 11:01:25;;;;;;;1.20;0.90;;;22.70;98.30;;;;;;5036218;28;20979;-36
2022/11/03 11:03:52;;;;;;;1.83;1.00;;;22.70;98.50;;;;;;5035625;28;20442;-38
2022/11/03 11:06:21;;;;;;;1.53;0.90;;;22.70;98.60;;;;;;5040468;28;20473;-39
2022/11/03 11:08:49;;;;;;;1.80;0.90;;;22.70;98.70;;;;;;5046876;28;20557;-38
2022/11/03 11:11:17;;;;;;;2.17;1.10;;;22.70;98.70;;;;;;5048624;28;20457;-36
2022/11/03 11:13:45;;;;;;;1.33;0.70;;;22.70;98.70;;;;;;5032369;28;20473;-38
2022/11/03 11:16:45;;;;;;;1.20;0.90;;;22.70;98.70;;;;;;5032666;28;20601;-38
2022/11/03 11:19:11;;;;;;;2.07;1.10;;;22.70;98.80;;;;;;5030832;28;20470;-36
2022/11/03 11:22:00;;;;;;;2.20;1.10;;;22.70;98.70;;;;;;5034799;28;20770;-35
2022/11/03 11:25:09;;;;;;;1.67;1.00;;;22.70;98.70;;;;;;5043090;28;20472;-35
2022/11/03 11:28:17;;;;;;;1.43;1.20;;;22.70;98.40;;;;;;5021494;28;20449;-38
2022/11/03 11:31:24;;;;;;;2.80;0.90;;;22.80;98.60;;;;;;5037998;28;20449;-45
2022/11/03 11:34:35;;;;;;;2.23;1.20;;;22.80;98.50;;;;;;5030040;28;20983;-43
2022/11/03 11:37:34;;;;;;;4.67;1.37;;;22.80;98.70;;;;;;5016364;28;20859;-43
2022/11/03 11:40:01;;;;;;;2.93;1.10;;;22.80;98.60;;;;;;5031790;28;20516;-42
2022/11/03 11:42:28;;;;;;;1.60;0.90;;;22.80;98.80;;;;;;5038579;28;20886;-42
2022/11/03 11:45:01;;;;;;;1.37;1.00;;;22.90;99.00;;;;;;5034337;28;20822;-39
2022/11/03 11:47:44;;;;;;;2.30;1.00;;;22.90;99.10;;;;;;5033242;28;20459;-42
2022/11/03 11:50:17;;;;;;;1.10;1.00;;;22.90;99.00;;;;;;5040152;28;20465;-38
2022/11/03 11:52:47;;;;;;;1.63;1.07;;;22.90;99.00;;;;;;5036648;28;20454;-39
2022/11/03 11:55:18;;;;;;;1.20;0.90;;;22.90;99.10;;;;;;5039122;28;20817;-36
2022/11/03 11:57:46;;;;;;;1.57;0.93;;;22.90;99.30;;;;;;5037753;28;20548;-38
2022/11/03 12:00:21;;;;;;;1.20;0.90;;;22.90;99.20;;;;;;5037082;28;20482;-35
2022/11/03 12:02:49;;;;;;;3.43;1.07;;;22.90;99.40;;;;;;5040659;28;20972;-38
2022/11/03 12:05:21;;;;;;;1.53;0.90;;;22.90;99.60;;;;;;5034900;28;20514;-41
2022/11/03 12:07:48;;;;;;;2.47;0.80;;;22.90;99.70;;;;;;5031879;28;20461;-43
2022/11/03 12:10:17;;;;;;;1.50;1.00;;;22.90;99.70;;;;;;5030172;28;20451;-42
2022/11/03 12:12:44;;;;;;;2.70;1.20;;;22.90;99.80;;;;;;5042841;28;20940;-41
2022/11/03 12:15:49;;;;;;;1.50;1.00;;;22.90;99.30;;;;;;5041432;28;20464;-44
2022/11/03 12:18:31;;;;;;;1.40;1.00;;;22.90;99.80;;;;;;5036316;28;21046;-45
2022/11/03 12:20:58;;;;;;;1.13;0.83;;;22.90;99.70;;;;;;5036912;28;20500;-41
2022/11/03 12:23:41;;;;;;;2.23;1.00;;;22.90;99.80;;;;;;5038740;28;20462;-44
2022/11/03 12:26:18;;;;;;;1.33;1.07;;;22.90;99.80;;;;;;5037007;28;20453;-43
2022/11/03 12:28:45;;;;;;;1.93;1.00;;;22.90;99.60;;;;;;5033489;28;20500;-43
2022/11/03 12:31:12;;;;;;;2.80;1.17;;;22.90;99.60;;;;;;5035974;28;20454;-43
2022/11/03 12:33:40;;;;;;;2.00;1.10;;;22.90;99.70;;;;;;5037239;28;20861;-45
2022/11/03 12:36:08;;;;;;;1.97;1.33;;;22.90;99.90;;;;;;5037194;28;20451;-46
2022/11/03 12:38:34;;;;;;;1.20;1.00;;;22.90;99.90;;;;;;5032273;28;20459;-48
2022/11/03 12:41:20;;;;;;;1.40;0.90;;;22.90;99.90;;;;;;5033735;28;20473;-46
2022/11/03 12:43:47;;;;;;;2.30;1.03;;;22.90;99.90;;;;;;5040674;28;20462;-44
2022/11/03 12:46:14;;;;;;;20.80;2.30;;;23.00;99.90;;;;;;5035101;28;20485;-44
2022/11/03 12:48:42;;;;;;;1.20;1.00;;;22.90;99.90;;;;;;5037976;28;20805;-46
2022/11/03 12:51:11;;;;;;;2.03;1.40;;;22.90;98.20;;;;;;5045180;28;20449;-45
2022/11/03 12:53:38;;;;;;;2.93;1.47;;;22.90;98.10;;;;;;5029494;28;20463;-44
2022/11/03 12:56:05;;;;;;;1.70;1.20;;;22.90;97.80;;;;;;5030465;28;20477;-43
2022/11/03 12:58:31;;;;;;;3.20;1.20;;;23.00;96.20;;;;;;5036666;28;20461;-43
2022/11/03 13:00:58;;;;;;;2.73;1.33;;;23.00;95.40;;;;;;5035496;28;21001;-42
2022/11/03 13:03:25;;;;;;;4.30;1.37;;;22.90;94.90;;;;;;5031795;28;20459;-42
2022/11/03 13:05:53;;;;;;;3.33;1.53;;;22.90;94.80;;;;;;5040137;28;20461;-43
2022/11/03 13:08:20;;;;;;;3.07;1.40;;;22.90;94.70;;;;;;5040006;28;20469;-42
2022/11/03 13:10:47;;;;;;;1.40;1.20;;;22.90;94.70;;;;;;5031581;28;20473;-42
2022/11/03 13:13:13;;;;;;;1.83;1.00;;;22.90;94.50;;;;;;5037736;28;20963;-43
2022/11/03 13:15:40;;;;;;;1.60;1.00;;;22.90;94.40;;;;;;5034777;28;20458;-43
2022/11/03 13:18:07;;;;;;;1.33;1.00;;;22.90;94.30;;;;;;5033073;28;20477;-41
2022/11/03 13:20:34;;;;;;;2.60;1.07;;;22.90;94.30;;;;;;5051951;28;20488;-43